« Back
NWS Peachtree City, Ga » Text Product » MCN Terminal Aerodrome Forecast


Printer-friendly Version
Current Version              Previous Versions:   1  2  3  4  5  6  7  8  9  

Terminal Aerodrome Forecast

597
FTUS42 KFFC 301739
TAFMCN
TAF
KMCN 301739Z 3018/3118 25010KT P6SM SCT015 BKN025
     FM302000 30012KT P6SM FEW020 BKN035
     FM310000 30008KT P6SM SCT050
     FM310500 VRB03KT P6SM SKC
      TEMPO 3108/3112 4SM BR
     FM311400 20005KT P6SM SCT035=

USA.gov is the U.S. government's official web portal to all federal, state and local government web resources and services.